createdAt,value
2022-08-17T00:00:00.659Z,19.00
2022-08-17T00:02:27.534Z,19.02
2022-08-17T00:04:55.536Z,18.86
2022-08-17T00:07:22.936Z,18.74
2022-08-17T00:09:49.965Z,18.70
2022-08-17T00:12:41.777Z,18.76
2022-08-17T00:15:10.546Z,18.72
2022-08-17T00:17:38.194Z,18.74
2022-08-17T00:20:05.999Z,18.82
2022-08-17T00:22:36.502Z,18.82
2022-08-17T00:25:10.145Z,18.78
2022-08-17T00:27:37.082Z,18.75
2022-08-17T00:30:10.318Z,18.72
2022-08-17T00:33:12.041Z,18.69
2022-08-17T00:35:31.156Z,18.62
2022-08-17T00:37:57.962Z,18.72
2022-08-17T00:40:24.962Z,18.79
2022-08-17T00:42:53.288Z,18.93
2022-08-17T00:45:21.252Z,18.88
2022-08-17T00:47:48.534Z,19.06
2022-08-17T00:50:19.204Z,18.86
2022-08-17T00:52:52.727Z,19.02
2022-08-17T00:55:20.419Z,18.88
2022-08-17T00:57:55.211Z,18.66
2022-08-17T01:00:29.337Z,18.55
2022-08-17T01:03:02.169Z,18.30
2022-08-17T01:05:32.220Z,18.10
2022-08-17T01:08:01.092Z,18.14
2022-08-17T01:10:58.482Z,18.29
2022-08-17T01:13:25.176Z,18.15
2022-08-17T01:16:00.213Z,18.22
2022-08-17T01:18:27.914Z,18.12
2022-08-17T01:20:57.765Z,18.06
2022-08-17T01:23:27.625Z,18.16
2022-08-17T01:25:58.588Z,18.16
2022-08-17T01:28:52.525Z,18.13
2022-08-17T01:31:16.893Z,18.18
2022-08-17T01:33:43.939Z,17.98
2022-08-17T01:36:10.858Z,18.08
2022-08-17T01:38:38.544Z,18.10
2022-08-17T01:41:15.741Z,18.16
2022-08-17T01:44:05.191Z,18.04
2022-08-17T01:46:35.856Z,17.76
2022-08-17T01:49:07.627Z,17.83
2022-08-17T01:51:34.824Z,17.91
2022-08-17T01:54:06.221Z,18.03
2022-08-17T01:56:35.595Z,18.03
2022-08-17T01:59:02.993Z,17.96
2022-08-17T02:01:32.509Z,17.90
2022-08-17T02:04:01.618Z,17.99
2022-08-17T02:06:45.080Z,18.10
2022-08-17T02:09:23.231Z,18.06
2022-08-17T02:11:50.971Z,17.93
2022-08-17T02:14:18.105Z,17.93
2022-08-17T02:16:44.990Z,17.94
2022-08-17T02:19:14.469Z,17.85
2022-08-17T02:21:43.940Z,17.83
2022-08-17T02:24:16.219Z,17.81
2022-08-17T02:26:43.275Z,17.82
2022-08-17T02:29:10.187Z,17.65
2022-08-17T02:31:37.943Z,17.65
2022-08-17T02:34:05.471Z,17.52
2022-08-17T02:36:36.316Z,17.57
2022-08-17T02:39:05.730Z,17.71
2022-08-17T02:41:33.076Z,17.70
2022-08-17T02:44:00.753Z,17.68
2022-08-17T02:46:28.422Z,17.62
2022-08-17T02:48:55.377Z,17.45
2022-08-17T02:51:22.311Z,17.38
2022-08-17T02:53:49.254Z,17.42
2022-08-17T02:56:16.375Z,17.41
2022-08-17T02:58:43.307Z,17.44
2022-08-17T03:01:10.915Z,17.50
2022-08-17T03:03:38.915Z,17.49
2022-08-17T03:06:07.732Z,17.67
2022-08-17T03:08:35.478Z,17.58
2022-08-17T03:11:02.311Z,17.56
2022-08-17T03:13:30.846Z,17.43
2022-08-17T03:15:58.247Z,17.46
2022-08-17T03:18:26.402Z,17.39
2022-08-17T03:20:56.371Z,17.42
2022-08-17T03:23:25.469Z,17.37
2022-08-17T03:25:54.012Z,17.37
2022-08-17T03:28:21.801Z,17.40
2022-08-17T03:30:49.303Z,17.39
2022-08-17T03:33:17.079Z,17.48
2022-08-17T03:35:44.014Z,17.21
2022-08-17T03:38:12.594Z,17.20
2022-08-17T03:40:57.431Z,17.23
2022-08-17T03:43:30.665Z,17.24
2022-08-17T03:46:28.508Z,17.22
2022-08-17T03:49:25.980Z,17.22
2022-08-17T03:52:16.363Z,17.31
2022-08-17T03:55:03.140Z,17.39
2022-08-17T03:57:30.977Z,17.43
2022-08-17T03:59:58.066Z,17.42
2022-08-17T04:02:29.028Z,17.35
2022-08-17T04:04:56.641Z,17.28
2022-08-17T04:07:27.645Z,17.32
2022-08-17T04:09:55.307Z,17.19
2022-08-17T04:12:23.760Z,17.27
2022-08-17T04:14:52.978Z,17.26
2022-08-17T04:17:27.442Z,17.27
2022-08-17T04:19:55.481Z,17.21
2022-08-17T04:22:32.089Z,17.29
2022-08-17T04:25:19.137Z,17.24
2022-08-17T04:27:46.010Z,17.32
2022-08-17T04:30:13.367Z,17.51
2022-08-17T04:33:04.018Z,17.53
2022-08-17T04:35:40.297Z,17.47
2022-08-17T04:38:10.162Z,17.50
2022-08-17T04:40:55.513Z,17.50
2022-08-17T04:43:24.901Z,17.56
2022-08-17T04:46:01.379Z,17.68
2022-08-17T04:48:36.439Z,17.73
2022-08-17T04:51:15.090Z,17.88
2022-08-17T04:53:45.595Z,17.90
2022-08-17T04:56:21.316Z,18.01
2022-08-17T04:58:52.148Z,18.20
2022-08-17T05:01:24.033Z,18.26
2022-08-17T05:03:53.341Z,18.47
2022-08-17T05:06:20.762Z,18.69
2022-08-17T05:08:47.745Z,18.75
2022-08-17T05:11:15.322Z,18.83
2022-08-17T05:13:42.260Z,18.96
2022-08-17T05:16:09.333Z,19.21
2022-08-17T05:18:38.929Z,19.42
2022-08-17T05:21:07.007Z,19.57
2022-08-17T05:23:41.734Z,19.78
2022-08-17T05:26:22.571Z,19.93
2022-08-17T05:29:00.463Z,19.99
2022-08-17T05:31:30.310Z,20.21
2022-08-17T05:33:57.408Z,20.30
2022-08-17T05:36:42.397Z,20.47
2022-08-17T05:39:15.908Z,20.60
2022-08-17T05:41:45.944Z,20.60
2022-08-17T05:44:12.926Z,20.90
2022-08-17T05:46:43.838Z,21.12
2022-08-17T05:49:12.834Z,21.23
2022-08-17T05:52:07.220Z,21.35
2022-08-17T05:54:46.033Z,21.54
2022-08-17T05:57:29.271Z,21.78
2022-08-17T06:00:20.890Z,22.00
2022-08-17T06:03:30.894Z,22.24
2022-08-17T06:06:01.547Z,22.44
2022-08-17T06:08:48.166Z,22.79
2022-08-17T06:11:27.223Z,23.02
2022-08-17T06:14:14.645Z,23.40
2022-08-17T06:16:45.717Z,23.58
2022-08-17T06:19:18.892Z,23.87
2022-08-17T06:21:51.006Z,24.05
2022-08-17T06:24:37.255Z,24.32
2022-08-17T06:27:21.550Z,24.54
2022-08-17T06:30:14.325Z,24.83
2022-08-17T06:32:45.313Z,24.96
2022-08-17T06:35:16.855Z,25.34
2022-08-17T06:37:51.775Z,25.57
2022-08-17T06:40:37.335Z,25.72
2022-08-17T06:43:26.316Z,25.96
2022-08-17T06:46:23.605Z,26.25
2022-08-17T06:49:11.721Z,26.50
2022-08-17T06:51:51.915Z,26.74
2022-08-17T06:55:17.734Z,26.96
2022-08-17T06:57:52.838Z,27.25
2022-08-17T07:00:26.786Z,27.43
2022-08-17T07:03:12.764Z,27.65
2022-08-17T07:05:42.666Z,27.87
2022-08-17T07:08:35.027Z,28.07
2022-08-17T07:11:15.631Z,28.28
2022-08-17T07:13:51.384Z,28.23
2022-08-17T07:16:33.681Z,28.42
2022-08-17T07:19:00.609Z,28.63
2022-08-17T07:22:05.067Z,28.92
2022-08-17T07:24:43.403Z,28.87
2022-08-17T07:27:14.390Z,28.95
2022-08-17T07:29:53.757Z,29.21
2022-08-17T07:32:26.502Z,29.28
2022-08-17T07:35:11.320Z,29.37
2022-08-17T07:38:24.240Z,29.60
2022-08-17T07:41:02.613Z,29.65
2022-08-17T07:43:37.058Z,29.58
2022-08-17T07:46:41.065Z,29.94
2022-08-17T07:49:10.757Z,29.92
2022-08-17T07:51:39.656Z,29.87
2022-08-17T07:54:15.680Z,30.08
2022-08-17T07:56:49.686Z,30.16
2022-08-17T07:59:36.425Z,30.52
2022-08-17T08:02:29.516Z,30.44
2022-08-17T08:05:02.057Z,30.48
2022-08-17T08:07:50.643Z,30.46
2022-08-17T08:10:32.489Z,30.75
2022-08-17T08:13:09.137Z,30.93
2022-08-17T08:15:53.615Z,30.97
2022-08-17T08:18:54.750Z,31.06
2022-08-17T08:21:51.517Z,31.13
2022-08-17T08:24:30.749Z,31.33
2022-08-17T08:27:13.621Z,31.45
2022-08-17T08:30:06.747Z,31.42
2022-08-17T08:33:07.692Z,31.40
2022-08-17T08:35:54.882Z,31.73
2022-08-17T08:38:37.494Z,31.94
2022-08-17T08:41:23.014Z,31.82
2022-08-17T08:44:04.989Z,31.90
2022-08-17T08:46:50.044Z,31.80
2022-08-17T08:50:02.538Z,31.95
2022-08-17T08:53:16.041Z,32.14
2022-08-17T08:55:59.145Z,32.37
2022-08-17T08:58:50.917Z,32.34
2022-08-17T09:01:56.091Z,32.31
2022-08-17T09:05:13.792Z,32.72
2022-08-17T09:07:47.654Z,32.58
2022-08-17T09:10:25.577Z,32.73
2022-08-17T09:13:10.094Z,32.91
2022-08-17T09:15:48.360Z,33.12
2022-08-17T09:19:00.247Z,33.16
2022-08-17T09:21:13.965Z,33.38
2022-08-17T09:24:12.909Z,33.25
2022-08-17T09:26:57.201Z,33.49
2022-08-17T09:29:27.158Z,33.35
2022-08-17T09:31:59.765Z,32.98
2022-08-17T09:34:46.994Z,33.44
2022-08-17T09:37:18.129Z,33.65
2022-08-17T09:40:12.267Z,33.62
2022-08-17T09:43:24.915Z,33.81
2022-08-17T09:45:57.461Z,33.68
2022-08-17T09:48:39.124Z,33.75
2022-08-17T09:51:35.108Z,33.65
2022-08-17T09:54:34.785Z,33.62
2022-08-17T09:57:29.774Z,33.40
2022-08-17T10:00:18.999Z,33.89
2022-08-17T10:02:51.361Z,34.10
2022-08-17T10:05:56.657Z,34.30
2022-08-17T10:08:40.197Z,34.24
2022-08-17T10:11:54.015Z,34.33
2022-08-17T10:14:46.343Z,34.61
2022-08-17T10:17:28.025Z,34.36
2022-08-17T10:20:14.192Z,34.73
2022-08-17T10:23:11.618Z,34.61
2022-08-17T10:26:14.929Z,34.82
2022-08-17T10:28:52.809Z,34.96
2022-08-17T10:31:46.128Z,35.10
2022-08-17T10:34:51.439Z,35.14
2022-08-17T10:37:39.514Z,34.94
2022-08-17T10:40:28.230Z,35.37
2022-08-17T10:43:18.714Z,35.45
2022-08-17T10:46:17.105Z,35.29
2022-08-17T10:49:18.394Z,35.36
2022-08-17T10:51:52.976Z,35.44
2022-08-17T10:54:25.925Z,35.37
2022-08-17T10:56:58.116Z,35.53
2022-08-17T10:59:37.251Z,35.77
2022-08-17T11:02:19.527Z,36.08
2022-08-17T11:05:07.332Z,35.94
2022-08-17T11:07:36.834Z,35.76
2022-08-17T11:10:25.076Z,35.83
2022-08-17T11:13:23.518Z,35.79
2022-08-17T11:16:15.361Z,35.49
2022-08-17T11:19:10.123Z,35.88
2022-08-17T11:21:38.876Z,35.84
2022-08-17T11:24:13.359Z,36.03
2022-08-17T11:26:46.904Z,36.33
2022-08-17T11:29:38.534Z,36.56
2022-08-17T11:32:13.822Z,36.34
2022-08-17T11:34:44.646Z,36.31
2022-08-17T11:37:41.835Z,36.15
2022-08-17T11:40:32.874Z,35.93
2022-08-17T11:43:15.699Z,36.13
2022-08-17T11:46:24.146Z,36.14
2022-08-17T11:49:15.414Z,36.07
2022-08-17T11:52:04.240Z,36.23
2022-08-17T11:54:33.789Z,36.29
2022-08-17T11:57:27.392Z,36.48
2022-08-17T12:00:08.922Z,35.97
2022-08-17T12:02:48.869Z,36.24
2022-08-17T12:05:19.115Z,36.33
2022-08-17T12:07:45.970Z,36.77
2022-08-17T12:10:17.323Z,37.02
2022-08-17T12:12:47.120Z,36.90
2022-08-17T12:15:29.769Z,36.82
2022-08-17T12:17:59.088Z,37.21
2022-08-17T12:20:43.463Z,37.16
2022-08-17T12:23:16.240Z,36.62
2022-08-17T12:26:17.376Z,36.80
2022-08-17T12:28:47.967Z,36.65
2022-08-17T12:31:27.639Z,36.65
2022-08-17T12:33:54.750Z,36.80
2022-08-17T12:36:24.890Z,36.88
2022-08-17T12:39:12.964Z,37.08
2022-08-17T12:41:47.062Z,36.99
2022-08-17T12:44:18.767Z,36.85
2022-08-17T12:46:56.240Z,37.26
2022-08-17T12:49:29.674Z,37.43
2022-08-17T12:52:12.651Z,37.45
2022-08-17T12:55:00.703Z,37.42
2022-08-17T12:57:42.981Z,37.41
2022-08-17T13:00:25.558Z,37.55
2022-08-17T13:02:52.366Z,37.42
2022-08-17T13:05:27.730Z,37.51
2022-08-17T13:07:57.073Z,36.89
2022-08-17T13:10:32.518Z,37.09
2022-08-17T13:13:05.286Z,37.52
2022-08-17T13:15:37.019Z,37.77
2022-08-17T13:18:38.952Z,37.78
2022-08-17T13:21:23.895Z,37.09
2022-08-17T13:24:02.400Z,36.58
2022-08-17T13:26:43.040Z,36.79
2022-08-17T13:29:24.114Z,36.88
2022-08-17T13:32:14.291Z,37.14
2022-08-17T13:34:50.270Z,37.16
2022-08-17T13:37:35.350Z,37.40
2022-08-17T13:40:08.143Z,37.26
2022-08-17T13:42:48.128Z,37.37
2022-08-17T13:45:35.268Z,37.28
2022-08-17T13:48:16.915Z,36.86
2022-08-17T13:50:55.789Z,36.44
2022-08-17T13:53:36.176Z,36.03
2022-08-17T13:56:31.737Z,35.45
2022-08-17T13:59:14.504Z,35.57
2022-08-17T14:01:46.573Z,36.23
2022-08-17T14:04:19.875Z,36.70
2022-08-17T14:06:52.173Z,36.47
2022-08-17T14:09:24.153Z,35.99
2022-08-17T14:11:52.877Z,35.97
2022-08-17T14:14:22.411Z,36.49
2022-08-17T14:16:50.606Z,36.65
2022-08-17T14:19:17.874Z,36.80
2022-08-17T14:21:46.518Z,36.84
2022-08-17T14:24:25.257Z,36.81
2022-08-17T14:26:53.136Z,37.08
2022-08-17T14:29:21.804Z,37.19
2022-08-17T14:31:54.193Z,37.01
2022-08-17T14:34:23.443Z,37.02
2022-08-17T14:36:51.885Z,37.12
2022-08-17T14:39:19.529Z,37.00
2022-08-17T14:41:46.610Z,36.86
2022-08-17T14:44:13.656Z,36.87
2022-08-17T14:46:42.134Z,36.87
2022-08-17T14:49:12.530Z,36.87
2022-08-17T14:51:44.249Z,36.88
2022-08-17T14:54:33.216Z,36.87
2022-08-17T14:57:22.617Z,36.92
2022-08-17T14:59:54.495Z,37.01
2022-08-17T15:02:30.074Z,36.63
2022-08-17T15:05:06.444Z,36.61
2022-08-17T15:07:33.312Z,36.59
2022-08-17T15:10:02.557Z,36.55
2022-08-17T15:12:33.264Z,36.68
2022-08-17T15:15:06.320Z,36.74
2022-08-17T15:17:44.430Z,36.77
2022-08-17T15:20:22.943Z,36.80
2022-08-17T15:22:50.381Z,36.70
2022-08-17T15:25:19.231Z,36.71
2022-08-17T15:27:46.453Z,36.68
2022-08-17T15:30:13.393Z,36.48
2022-08-17T15:32:45.849Z,36.46
2022-08-17T15:35:19.591Z,36.31
2022-08-17T15:37:54.677Z,36.19
2022-08-17T15:40:21.577Z,36.12
2022-08-17T15:42:48.630Z,35.93
2022-08-17T15:45:17.042Z,35.93
2022-08-17T15:47:44.042Z,35.87
2022-08-17T15:50:11.136Z,35.89
2022-08-17T15:52:40.560Z,35.79
2022-08-17T15:55:11.596Z,35.96
2022-08-17T15:57:38.799Z,35.72
2022-08-17T16:00:08.566Z,35.89
2022-08-17T16:03:44.914Z,35.83
2022-08-17T16:05:27.350Z,35.78
2022-08-17T16:07:55.888Z,35.41
2022-08-17T16:10:23.351Z,35.31
2022-08-17T16:13:04.117Z,35.24
2022-08-17T16:15:31.819Z,35.16
2022-08-17T16:17:59.334Z,35.11
2022-08-17T16:20:26.431Z,35.02
2022-08-17T16:22:55.004Z,34.85
2022-08-17T16:25:52.078Z,34.77
2022-08-17T16:28:16.351Z,34.66
2022-08-17T16:30:43.803Z,34.45
2022-08-17T16:33:11.746Z,34.17
2022-08-17T16:35:39.099Z,34.14
2022-08-17T16:38:07.314Z,34.05
2022-08-17T16:40:36.147Z,33.96
2022-08-17T16:43:04.491Z,33.86
2022-08-17T16:45:40.822Z,33.85
2022-08-17T16:48:09.124Z,33.78
2022-08-17T16:50:37.085Z,33.74
2022-08-17T16:53:17.944Z,33.60
2022-08-17T16:55:45.926Z,33.46
2022-08-17T16:58:13.360Z,33.39
2022-08-17T17:00:42.360Z,33.26
2022-08-17T17:03:19.033Z,33.16
2022-08-17T17:06:03.723Z,33.11
2022-08-17T17:09:17.064Z,32.89
2022-08-17T17:11:50.958Z,32.77
2022-08-17T17:14:28.391Z,32.54
2022-08-17T17:17:23.601Z,32.32
2022-08-17T17:20:12.474Z,32.20
2022-08-17T17:22:51.049Z,32.04
2022-08-17T17:25:29.385Z,31.86
2022-08-17T17:28:08.022Z,31.70
2022-08-17T17:30:50.197Z,31.57
2022-08-17T17:33:21.354Z,31.38
2022-08-17T17:35:59.412Z,31.29
2022-08-17T17:38:33.154Z,31.17
2022-08-17T17:41:13.222Z,31.00
2022-08-17T17:43:41.432Z,30.87
2022-08-17T17:46:27.871Z,30.59
2022-08-17T17:48:57.731Z,30.34
2022-08-17T17:52:09.642Z,29.69
2022-08-17T17:55:07.554Z,29.31
2022-08-17T17:58:11.903Z,29.12
2022-08-17T18:00:44.901Z,29.01
2022-08-17T18:03:23.992Z,28.82
2022-08-17T18:06:12.778Z,28.73
2022-08-17T18:08:44.817Z,28.50
2022-08-17T18:11:24.384Z,28.37
2022-08-17T18:14:18.807Z,28.33
2022-08-17T18:16:48.147Z,28.20
2022-08-17T18:19:22.567Z,28.03
2022-08-17T18:21:54.837Z,27.88
2022-08-17T18:24:35.214Z,27.72
2022-08-17T18:27:08.302Z,27.61
2022-08-17T18:29:43.490Z,27.56
2022-08-17T18:32:22.515Z,27.43
2022-08-17T18:35:14.276Z,27.25
2022-08-17T18:37:45.944Z,27.12
2022-08-17T18:40:19.734Z,27.00
2022-08-17T18:43:03.176Z,26.85
2022-08-17T18:45:41.159Z,26.74
2022-08-17T18:48:22.014Z,26.71
2022-08-17T18:50:53.346Z,26.51
2022-08-17T18:53:34.199Z,26.53
2022-08-17T18:56:20.330Z,26.27
2022-08-17T18:59:12.511Z,26.11
2022-08-17T19:01:52.571Z,25.93
2022-08-17T19:04:40.828Z,25.72
2022-08-17T19:07:07.601Z,25.70
2022-08-17T19:09:40.699Z,25.58
2022-08-17T19:12:13.711Z,25.43
2022-08-17T19:14:41.537Z,25.42
2022-08-17T19:17:21.758Z,25.33
2022-08-17T19:20:01.355Z,25.30
2022-08-17T19:22:58.532Z,25.32
2022-08-17T19:25:30.886Z,25.28
2022-08-17T19:28:21.944Z,25.14
2022-08-17T19:30:56.067Z,25.03
2022-08-17T19:33:23.410Z,24.71
2022-08-17T19:36:06.090Z,24.60
2022-08-17T19:38:57.735Z,24.54
2022-08-17T19:42:11.128Z,24.56
2022-08-17T19:44:50.801Z,24.43
2022-08-17T19:47:50.967Z,24.34
2022-08-17T19:50:25.759Z,24.22
2022-08-17T19:53:07.685Z,24.26
2022-08-17T19:55:54.086Z,24.16
2022-08-17T19:58:48.375Z,24.05
2022-08-17T20:01:34.918Z,24.03
2022-08-17T20:04:13.285Z,23.86
2022-08-17T20:06:44.998Z,23.67
2022-08-17T20:09:15.021Z,23.65
2022-08-17T20:11:49.450Z,23.63
2022-08-17T20:14:21.953Z,23.62
2022-08-17T20:16:48.947Z,23.60
2022-08-17T20:19:48.525Z,23.65
2022-08-17T20:22:28.721Z,23.53
2022-08-17T20:25:11.609Z,23.50
2022-08-17T20:27:53.756Z,23.54
2022-08-17T20:30:37.732Z,23.42
2022-08-17T20:33:08.489Z,23.26
2022-08-17T20:35:59.831Z,23.06
2022-08-17T20:38:45.701Z,22.91
2022-08-17T20:41:35.149Z,22.55
2022-08-17T20:44:05.215Z,22.52
2022-08-17T20:46:38.297Z,22.49
2022-08-17T20:49:11.014Z,22.56
2022-08-17T20:52:07.753Z,22.53
2022-08-17T20:54:47.729Z,22.55
2022-08-17T20:57:33.050Z,22.40
2022-08-17T21:00:19.230Z,22.44
2022-08-17T21:03:10.838Z,22.40
2022-08-17T21:05:59.977Z,22.39
2022-08-17T21:08:35.435Z,22.52
2022-08-17T21:12:03.104Z,22.46
2022-08-17T21:14:14.864Z,22.46
2022-08-17T21:17:17.720Z,22.46
2022-08-17T21:20:13.803Z,22.44
2022-08-17T21:22:59.095Z,22.44
2022-08-17T21:25:44.985Z,22.57
2022-08-17T21:29:00.348Z,22.52
2022-08-17T21:31:34.307Z,22.59
2022-08-17T21:34:16.846Z,22.59
2022-08-17T21:36:47.178Z,22.55
2022-08-17T21:39:23.945Z,22.58
2022-08-17T21:41:57.541Z,22.64
2022-08-17T21:44:31.642Z,22.62
2022-08-17T21:47:30.856Z,22.62
2022-08-17T21:50:16.168Z,22.63
2022-08-17T21:52:43.696Z,22.67
2022-08-17T21:55:21.945Z,22.64
2022-08-17T21:57:52.744Z,22.68
2022-08-17T22:00:29.046Z,22.61
2022-08-17T22:03:00.216Z,22.50
2022-08-17T22:05:31.281Z,22.61
2022-08-17T22:08:18.441Z,22.68
2022-08-17T22:10:51.404Z,22.63
2022-08-17T22:13:18.249Z,22.49
2022-08-17T22:16:15.169Z,22.63
2022-08-17T22:18:44.892Z,22.46
2022-08-17T22:21:11.752Z,22.69
2022-08-17T22:24:01.240Z,22.67
2022-08-17T22:27:00.250Z,22.72
2022-08-17T22:29:58.994Z,22.62
2022-08-17T22:32:37.433Z,22.68
2022-08-17T22:35:16.548Z,22.77
2022-08-17T22:37:43.687Z,22.83
2022-08-17T22:40:13.073Z,22.91
2022-08-17T22:42:48.475Z,22.94
2022-08-17T22:45:15.711Z,22.97
2022-08-17T22:47:48.877Z,23.06
2022-08-17T22:50:27.989Z,23.13
2022-08-17T22:53:21.633Z,23.01
2022-08-17T22:56:12.376Z,22.87
2022-08-17T22:59:08.105Z,22.87
2022-08-17T23:01:35.605Z,22.84
2022-08-17T23:04:07.546Z,22.81
2022-08-17T23:06:36.777Z,22.66
2022-08-17T23:09:06.356Z,22.61
2022-08-17T23:11:49.476Z,22.53
2022-08-17T23:14:20.179Z,22.49
2022-08-17T23:16:49.118Z,22.54
2022-08-17T23:19:19.908Z,22.43
2022-08-17T23:21:47.464Z,22.40
2022-08-17T23:24:19.667Z,22.47
2022-08-17T23:26:46.560Z,22.45
2022-08-17T23:29:13.455Z,22.39
2022-08-17T23:31:40.922Z,22.24
2022-08-17T23:34:13.299Z,22.18
2022-08-17T23:36:41.239Z,22.33
2022-08-17T23:39:08.252Z,22.09
2022-08-17T23:41:38.757Z,22.07
2022-08-17T23:44:07.006Z,21.92
2022-08-17T23:46:34.830Z,21.52
2022-08-17T23:49:01.908Z,21.38
2022-08-17T23:51:34.766Z,20.99
2022-08-17T23:54:09.418Z,21.02
2022-08-17T23:56:44.508Z,21.01
2022-08-17T23:59:12.996Z,20.86
